sensor_id;sensor_type;location;lat;lon;timestamp;P1;durP1;ratioP1;P2;durP2;ratioP2
15354;SDS011;7777;52.254;9.618;2023-09-08T00:01:54;6.47;;;5.53;;
15354;SDS011;7777;52.254;9.618;2023-09-08T00:04:20;7.10;;;5.10;;
15354;SDS011;7777;52.254;9.618;2023-09-08T00:06:46;6.77;;;4.87;;
15354;SDS011;7777;52.254;9.618;2023-09-08T00:09:12;6.87;;;5.07;;
15354;SDS011;7777;52.254;9.618;2023-09-08T00:11:37;10.27;;;5.40;;
15354;SDS011;7777;52.254;9.618;2023-09-08T00:14:03;8.20;;;5.50;;
15354;SDS011;7777;52.254;9.618;2023-09-08T00:16:29;7.50;;;5.10;;
15354;SDS011;7777;52.254;9.618;2023-09-08T00:18:55;10.80;;;4.97;;
15354;SDS011;7777;52.254;9.618;2023-09-08T00:21:23;6.80;;;5.20;;
15354;SDS011;7777;52.254;9.618;2023-09-08T00:23:50;12.20;;;5.37;;
15354;SDS011;7777;52.254;9.618;2023-09-08T00:26:19;6.67;;;5.00;;
15354;SDS011;7777;52.254;9.618;2023-09-08T00:28:46;7.10;;;4.87;;
15354;SDS011;7777;52.254;9.618;2023-09-08T00:31:12;9.67;;;5.23;;
15354;SDS011;7777;52.254;9.618;2023-09-08T00:33:38;5.97;;;4.43;;
15354;SDS011;7777;52.254;9.618;2023-09-08T00:36:05;10.00;;;5.20;;
15354;SDS011;7777;52.254;9.618;2023-09-08T00:38:31;6.37;;;4.70;;
15354;SDS011;7777;52.254;9.618;2023-09-08T00:40:57;6.03;;;4.77;;
15354;SDS011;7777;52.254;9.618;2023-09-08T00:43:24;6.83;;;4.40;;
15354;SDS011;7777;52.254;9.618;2023-09-08T00:45:50;5.77;;;4.80;;
15354;SDS011;7777;52.254;9.618;2023-09-08T00:48:16;6.43;;;5.27;;
15354;SDS011;7777;52.254;9.618;2023-09-08T00:50:42;6.83;;;4.83;;
15354;SDS011;7777;52.254;9.618;2023-09-08T00:53:08;6.23;;;4.93;;
15354;SDS011;7777;52.254;9.618;2023-09-08T00:58:11;7.40;;;4.77;;
15354;SDS011;7777;52.254;9.618;2023-09-08T01:00:37;4.87;;;4.30;;
15354;SDS011;7777;52.254;9.618;2023-09-08T01:03:03;8.67;;;5.50;;
15354;SDS011;7777;52.254;9.618;2023-09-08T01:05:29;7.60;;;5.43;;
15354;SDS011;7777;52.254;9.618;2023-09-08T01:07:55;7.53;;;4.57;;
15354;SDS011;7777;52.254;9.618;2023-09-08T01:10:22;6.30;;;5.13;;
15354;SDS011;7777;52.254;9.618;2023-09-08T01:12:48;6.93;;;5.50;;
15354;SDS011;7777;52.254;9.618;2023-09-08T01:15:14;8.80;;;6.00;;
15354;SDS011;7777;52.254;9.618;2023-09-08T01:17:40;7.57;;;5.43;;
15354;SDS011;7777;52.254;9.618;2023-09-08T01:20:12;9.57;;;6.20;;
15354;SDS011;7777;52.254;9.618;2023-09-08T01:22:55;8.63;;;6.77;;
15354;SDS011;7777;52.254;9.618;2023-09-08T01:25:28;11.73;;;6.17;;
15354;SDS011;7777;52.254;9.618;2023-09-08T01:27:55;6.53;;;5.80;;
15354;SDS011;7777;52.254;9.618;2023-09-08T01:30:26;9.93;;;6.23;;
15354;SDS011;7777;52.254;9.618;2023-09-08T01:32:54;8.23;;;6.13;;
15354;SDS011;7777;52.254;9.618;2023-09-08T01:35:21;8.60;;;5.83;;
15354;SDS011;7777;52.254;9.618;2023-09-08T01:37:48;7.57;;;6.07;;
15354;SDS011;7777;52.254;9.618;2023-09-08T01:40:14;16.20;;;7.17;;
15354;SDS011;7777;52.254;9.618;2023-09-08T01:42:41;11.23;;;6.73;;
15354;SDS011;7777;52.254;9.618;2023-09-08T01:45:07;12.47;;;6.40;;
15354;SDS011;7777;52.254;9.618;2023-09-08T01:47:33;8.23;;;6.40;;
15354;SDS011;7777;52.254;9.618;2023-09-08T01:50:00;12.53;;;6.53;;
15354;SDS011;7777;52.254;9.618;2023-09-08T01:52:26;10.20;;;6.17;;
15354;SDS011;7777;52.254;9.618;2023-09-08T01:54:52;9.63;;;6.60;;
15354;SDS011;7777;52.254;9.618;2023-09-08T01:57:18;9.47;;;6.87;;
15354;SDS011;7777;52.254;9.618;2023-09-08T01:59:44;9.70;;;6.77;;
15354;SDS011;7777;52.254;9.618;2023-09-08T02:02:10;12.00;;;6.43;;
15354;SDS011;7777;52.254;9.618;2023-09-08T02:04:36;8.57;;;6.50;;
15354;SDS011;7777;52.254;9.618;2023-09-08T02:07:02;7.70;;;5.77;;
15354;SDS011;7777;52.254;9.618;2023-09-08T02:09:30;7.40;;;5.73;;
15354;SDS011;7777;52.254;9.618;2023-09-08T02:12:00;8.70;;;6.80;;
15354;SDS011;7777;52.254;9.618;2023-09-08T02:14:27;7.30;;;6.37;;
15354;SDS011;7777;52.254;9.618;2023-09-08T02:16:56;6.97;;;5.83;;
15354;SDS011;7777;52.254;9.618;2023-09-08T02:19:22;8.27;;;6.13;;
15354;SDS011;7777;52.254;9.618;2023-09-08T02:21:48;8.07;;;6.20;;
15354;SDS011;7777;52.254;9.618;2023-09-08T02:24:14;7.40;;;6.17;;
15354;SDS011;7777;52.254;9.618;2023-09-08T02:26:40;6.33;;;5.53;;
15354;SDS011;7777;52.254;9.618;2023-09-08T02:29:06;8.57;;;5.27;;
15354;SDS011;7777;52.254;9.618;2023-09-08T02:31:32;7.13;;;5.70;;
15354;SDS011;7777;52.254;9.618;2023-09-08T02:33:59;6.30;;;5.60;;
15354;SDS011;7777;52.254;9.618;2023-09-08T02:36:25;7.37;;;6.07;;
15354;SDS011;7777;52.254;9.618;2023-09-08T02:38:52;7.23;;;6.53;;
15354;SDS011;7777;52.254;9.618;2023-09-08T02:41:18;9.63;;;6.60;;
15354;SDS011;7777;52.254;9.618;2023-09-08T02:43:44;14.17;;;7.30;;
15354;SDS011;7777;52.254;9.618;2023-09-08T02:46:10;7.73;;;6.53;;
15354;SDS011;7777;52.254;9.618;2023-09-08T02:48:36;14.10;;;7.50;;
15354;SDS011;7777;52.254;9.618;2023-09-08T02:51:02;13.10;;;7.43;;
15354;SDS011;7777;52.254;9.618;2023-09-08T02:53:28;8.27;;;6.57;;
15354;SDS011;7777;52.254;9.618;2023-09-08T02:55:54;7.37;;;6.03;;
15354;SDS011;7777;52.254;9.618;2023-09-08T02:58:21;13.83;;;7.50;;
15354;SDS011;7777;52.254;9.618;2023-09-08T03:00:47;7.27;;;6.50;;
15354;SDS011;7777;52.254;9.618;2023-09-08T03:03:12;10.40;;;5.43;;
15354;SDS011;7777;52.254;9.618;2023-09-08T03:05:38;8.23;;;5.90;;
15354;SDS011;7777;52.254;9.618;2023-09-08T03:08:04;7.80;;;5.60;;
15354;SDS011;7777;52.254;9.618;2023-09-08T03:10:33;6.67;;;5.70;;
15354;SDS011;7777;52.254;9.618;2023-09-08T03:13:02;11.20;;;5.87;;
15354;SDS011;7777;52.254;9.618;2023-09-08T03:15:28;8.87;;;6.00;;
15354;SDS011;7777;52.254;9.618;2023-09-08T03:17:54;7.67;;;5.87;;
15354;SDS011;7777;52.254;9.618;2023-09-08T03:20:22;8.90;;;6.10;;
15354;SDS011;7777;52.254;9.618;2023-09-08T03:22:47;14.30;;;6.70;;
15354;SDS011;7777;52.254;9.618;2023-09-08T03:25:16;7.13;;;6.30;;
15354;SDS011;7777;52.254;9.618;2023-09-08T03:27:42;8.73;;;5.97;;
15354;SDS011;7777;52.254;9.618;2023-09-08T03:30:08;6.13;;;5.10;;
15354;SDS011;7777;52.254;9.618;2023-09-08T03:32:34;8.90;;;5.70;;
15354;SDS011;7777;52.254;9.618;2023-09-08T03:35:00;8.83;;;5.80;;
15354;SDS011;7777;52.254;9.618;2023-09-08T03:37:26;9.37;;;5.83;;
15354;SDS011;7777;52.254;9.618;2023-09-08T03:39:52;7.90;;;5.80;;
15354;SDS011;7777;52.254;9.618;2023-09-08T03:42:18;10.93;;;5.87;;
15354;SDS011;7777;52.254;9.618;2023-09-08T03:44:44;6.80;;;5.63;;
15354;SDS011;7777;52.254;9.618;2023-09-08T03:47:09;10.10;;;5.70;;
15354;SDS011;7777;52.254;9.618;2023-09-08T03:49:35;7.53;;;5.90;;
15354;SDS011;7777;52.254;9.618;2023-09-08T03:52:01;8.13;;;6.40;;
15354;SDS011;7777;52.254;9.618;2023-09-08T03:54:27;7.57;;;6.27;;
15354;SDS011;7777;52.254;9.618;2023-09-08T03:56:52;6.57;;;5.80;;
15354;SDS011;7777;52.254;9.618;2023-09-08T03:59:18;14.20;;;6.17;;
15354;SDS011;7777;52.254;9.618;2023-09-08T04:01:44;11.20;;;6.60;;
15354;SDS011;7777;52.254;9.618;2023-09-08T04:04:09;9.00;;;6.13;;
15354;SDS011;7777;52.254;9.618;2023-09-08T04:06:35;10.00;;;6.30;;
15354;SDS011;7777;52.254;9.618;2023-09-08T04:09:01;8.30;;;5.77;;
15354;SDS011;7777;52.254;9.618;2023-09-08T04:11:27;8.27;;;5.67;;
15354;SDS011;7777;52.254;9.618;2023-09-08T04:13:52;9.17;;;6.40;;
15354;SDS011;7777;52.254;9.618;2023-09-08T04:16:18;10.10;;;6.10;;
15354;SDS011;7777;52.254;9.618;2023-09-08T04:18:44;14.83;;;6.30;;
15354;SDS011;7777;52.254;9.618;2023-09-08T04:21:10;8.10;;;6.03;;
15354;SDS011;7777;52.254;9.618;2023-09-08T04:23:35;10.10;;;6.17;;
15354;SDS011;7777;52.254;9.618;2023-09-08T04:26:01;8.37;;;5.93;;
15354;SDS011;7777;52.254;9.618;2023-09-08T04:28:27;8.37;;;5.50;;
15354;SDS011;7777;52.254;9.618;2023-09-08T04:30:53;10.60;;;6.00;;
15354;SDS011;7777;52.254;9.618;2023-09-08T04:33:18;9.37;;;6.03;;
15354;SDS011;7777;52.254;9.618;2023-09-08T04:35:44;8.57;;;6.40;;
15354;SDS011;7777;52.254;9.618;2023-09-08T04:38:10;9.47;;;5.73;;
15354;SDS011;7777;52.254;9.618;2023-09-08T04:40:36;8.27;;;5.87;;
15354;SDS011;7777;52.254;9.618;2023-09-08T04:43:05;6.97;;;6.20;;
15354;SDS011;7777;52.254;9.618;2023-09-08T04:45:31;10.53;;;6.47;;
15354;SDS011;7777;52.254;9.618;2023-09-08T04:47:57;10.60;;;6.63;;
15354;SDS011;7777;52.254;9.618;2023-09-08T04:50:22;7.07;;;5.67;;
15354;SDS011;7777;52.254;9.618;2023-09-08T04:52:48;8.57;;;5.87;;
15354;SDS011;7777;52.254;9.618;2023-09-08T04:55:14;9.37;;;6.30;;
15354;SDS011;7777;52.254;9.618;2023-09-08T04:57:40;11.47;;;6.27;;
15354;SDS011;7777;52.254;9.618;2023-09-08T05:00:06;8.83;;;5.70;;
15354;SDS011;7777;52.254;9.618;2023-09-08T05:02:32;9.50;;;6.23;;
15354;SDS011;7777;52.254;9.618;2023-09-08T05:04:58;8.93;;;5.73;;
15354;SDS011;7777;52.254;9.618;2023-09-08T05:07:25;11.73;;;6.17;;
15354;SDS011;7777;52.254;9.618;2023-09-08T05:09:50;9.53;;;6.03;;
15354;SDS011;7777;52.254;9.618;2023-09-08T05:12:16;6.90;;;5.30;;
15354;SDS011;7777;52.254;9.618;2023-09-08T05:14:42;7.57;;;5.53;;
15354;SDS011;7777;52.254;9.618;2023-09-08T05:17:08;8.33;;;6.00;;
15354;SDS011;7777;52.254;9.618;2023-09-08T05:19:33;8.67;;;6.03;;
15354;SDS011;7777;52.254;9.618;2023-09-08T05:21:59;12.83;;;6.60;;
15354;SDS011;7777;52.254;9.618;2023-09-08T05:24:25;7.43;;;5.60;;
15354;SDS011;7777;52.254;9.618;2023-09-08T05:26:52;8.17;;;6.70;;
15354;SDS011;7777;52.254;9.618;2023-09-08T05:29:18;7.60;;;6.53;;
15354;SDS011;7777;52.254;9.618;2023-09-08T05:31:43;8.67;;;6.33;;
15354;SDS011;7777;52.254;9.618;2023-09-08T05:34:09;8.93;;;5.93;;
15354;SDS011;7777;52.254;9.618;2023-09-08T05:36:35;8.40;;;6.33;;
15354;SDS011;7777;52.254;9.618;2023-09-08T05:39:03;8.10;;;6.07;;
15354;SDS011;7777;52.254;9.618;2023-09-08T05:41:30;9.60;;;6.83;;
15354;SDS011;7777;52.254;9.618;2023-09-08T05:43:57;8.27;;;6.43;;
15354;SDS011;7777;52.254;9.618;2023-09-08T05:46:23;10.03;;;6.80;;
15354;SDS011;7777;52.254;9.618;2023-09-08T05:48:48;6.87;;;5.83;;
15354;SDS011;7777;52.254;9.618;2023-09-08T05:51:14;9.20;;;6.43;;
15354;SDS011;7777;52.254;9.618;2023-09-08T05:53:40;9.10;;;6.17;;
15354;SDS011;7777;52.254;9.618;2023-09-08T05:56:06;10.67;;;6.87;;
15354;SDS011;7777;52.254;9.618;2023-09-08T05:58:32;6.97;;;5.93;;
15354;SDS011;7777;52.254;9.618;2023-09-08T06:00:59;7.30;;;6.43;;
15354;SDS011;7777;52.254;9.618;2023-09-08T06:03:28;7.33;;;5.60;;
15354;SDS011;7777;52.254;9.618;2023-09-08T06:05:55;9.37;;;6.07;;
15354;SDS011;7777;52.254;9.618;2023-09-08T06:08:22;6.70;;;6.00;;
15354;SDS011;7777;52.254;9.618;2023-09-08T06:10:47;8.47;;;6.27;;
15354;SDS011;7777;52.254;9.618;2023-09-08T06:13:13;8.57;;;5.87;;
15354;SDS011;7777;52.254;9.618;2023-09-08T06:15:39;13.37;;;6.73;;
15354;SDS011;7777;52.254;9.618;2023-09-08T06:18:05;9.30;;;6.40;;
15354;SDS011;7777;52.254;9.618;2023-09-08T06:20:31;14.20;;;6.80;;
15354;SDS011;7777;52.254;9.618;2023-09-08T06:22:57;15.47;;;6.80;;
15354;SDS011;7777;52.254;9.618;2023-09-08T06:25:22;10.83;;;6.57;;
15354;SDS011;7777;52.254;9.618;2023-09-08T06:27:48;10.17;;;6.30;;
15354;SDS011;7777;52.254;9.618;2023-09-08T06:30:14;9.33;;;5.70;;
15354;SDS011;7777;52.254;9.618;2023-09-08T06:32:41;11.30;;;6.57;;
15354;SDS011;7777;52.254;9.618;2023-09-08T06:35:07;9.30;;;6.47;;
15354;SDS011;7777;52.254;9.618;2023-09-08T06:37:37;10.23;;;6.40;;
15354;SDS011;7777;52.254;9.618;2023-09-08T06:40:04;14.60;;;6.37;;
15354;SDS011;7777;52.254;9.618;2023-09-08T06:42:31;8.37;;;6.23;;
15354;SDS011;7777;52.254;9.618;2023-09-08T06:44:57;7.63;;;5.70;;
15354;SDS011;7777;52.254;9.618;2023-09-08T06:47:24;8.57;;;6.50;;
15354;SDS011;7777;52.254;9.618;2023-09-08T06:49:49;8.00;;;6.70;;
15354;SDS011;7777;52.254;9.618;2023-09-08T06:52:16;7.97;;;5.90;;
15354;SDS011;7777;52.254;9.618;2023-09-08T06:54:42;10.67;;;6.63;;
15354;SDS011;7777;52.254;9.618;2023-09-08T06:57:10;7.83;;;6.17;;
15354;SDS011;7777;52.254;9.618;2023-09-08T06:59:37;10.13;;;6.90;;
15354;SDS011;7777;52.254;9.618;2023-09-08T07:02:03;8.70;;;6.47;;
15354;SDS011;7777;52.254;9.618;2023-09-08T07:04:29;10.37;;;6.60;;
15354;SDS011;7777;52.254;9.618;2023-09-08T07:06:55;9.37;;;6.97;;
15354;SDS011;7777;52.254;9.618;2023-09-08T07:09:21;6.97;;;6.13;;
15354;SDS011;7777;52.254;9.618;2023-09-08T07:11:47;12.27;;;6.33;;
15354;SDS011;7777;52.254;9.618;2023-09-08T07:14:12;8.10;;;5.20;;
15354;SDS011;7777;52.254;9.618;2023-09-08T07:16:38;14.07;;;6.67;;
15354;SDS011;7777;52.254;9.618;2023-09-08T07:19:04;10.13;;;5.80;;
15354;SDS011;7777;52.254;9.618;2023-09-08T07:21:30;9.00;;;6.03;;
15354;SDS011;7777;52.254;9.618;2023-09-08T07:23:56;7.97;;;5.60;;
15354;SDS011;7777;52.254;9.618;2023-09-08T07:26:23;8.00;;;5.70;;
15354;SDS011;7777;52.254;9.618;2023-09-08T07:28:48;11.37;;;6.03;;
15354;SDS011;7777;52.254;9.618;2023-09-08T07:31:14;8.73;;;5.87;;
15354;SDS011;7777;52.254;9.618;2023-09-08T07:33:40;12.47;;;6.27;;
15354;SDS011;7777;52.254;9.618;2023-09-08T07:36:07;8.30;;;5.50;;
15354;SDS011;7777;52.254;9.618;2023-09-08T07:38:33;8.67;;;5.47;;
15354;SDS011;7777;52.254;9.618;2023-09-08T07:41:03;11.43;;;6.30;;
15354;SDS011;7777;52.254;9.618;2023-09-08T07:43:28;8.10;;;5.93;;
15354;SDS011;7777;52.254;9.618;2023-09-08T07:45:55;8.50;;;5.93;;
15354;SDS011;7777;52.254;9.618;2023-09-08T07:48:23;10.27;;;5.53;;
15354;SDS011;7777;52.254;9.618;2023-09-08T07:50:49;11.73;;;5.73;;
15354;SDS011;7777;52.254;9.618;2023-09-08T07:53:15;8.03;;;5.30;;
15354;SDS011;7777;52.254;9.618;2023-09-08T07:55:41;6.37;;;5.40;;
15354;SDS011;7777;52.254;9.618;2023-09-08T07:58:10;12.90;;;6.37;;
15354;SDS011;7777;52.254;9.618;2023-09-08T08:00:36;9.53;;;5.87;;
15354;SDS011;7777;52.254;9.618;2023-09-08T08:03:01;9.17;;;6.03;;
15354;SDS011;7777;52.254;9.618;2023-09-08T08:05:27;8.87;;;5.60;;
15354;SDS011;7777;52.254;9.618;2023-09-08T08:07:53;9.47;;;5.73;;
15354;SDS011;7777;52.254;9.618;2023-09-08T08:10:19;7.37;;;5.47;;
15354;SDS011;7777;52.254;9.618;2023-09-08T08:12:45;6.50;;;5.03;;
15354;SDS011;7777;52.254;9.618;2023-09-08T08:15:11;9.13;;;5.53;;
15354;SDS011;7777;52.254;9.618;2023-09-08T08:17:37;9.40;;;5.60;;
15354;SDS011;7777;52.254;9.618;2023-09-08T08:20:05;6.70;;;5.20;;
15354;SDS011;7777;52.254;9.618;2023-09-08T08:22:33;8.33;;;5.50;;
15354;SDS011;7777;52.254;9.618;2023-09-08T08:24:59;8.60;;;5.70;;
15354;SDS011;7777;52.254;9.618;2023-09-08T08:27:25;7.33;;;5.50;;
15354;SDS011;7777;52.254;9.618;2023-09-08T08:29:55;7.93;;;5.03;;
15354;SDS011;7777;52.254;9.618;2023-09-08T08:32:24;5.73;;;4.83;;
15354;SDS011;7777;52.254;9.618;2023-09-08T08:34:50;7.63;;;5.03;;
15354;SDS011;7777;52.254;9.618;2023-09-08T08:37:16;11.57;;;5.53;;
15354;SDS011;7777;52.254;9.618;2023-09-08T08:39:42;5.70;;;4.73;;
15354;SDS011;7777;52.254;9.618;2023-09-08T08:42:11;7.47;;;5.40;;
15354;SDS011;7777;52.254;9.618;2023-09-08T08:44:38;11.40;;;5.60;;
15354;SDS011;7777;52.254;9.618;2023-09-08T08:47:06;8.47;;;5.57;;
15354;SDS011;7777;52.254;9.618;2023-09-08T08:49:33;6.73;;;4.97;;
15354;SDS011;7777;52.254;9.618;2023-09-08T08:51:59;6.90;;;4.63;;
15354;SDS011;7777;52.254;9.618;2023-09-08T08:54:31;8.10;;;5.10;;
15354;SDS011;7777;52.254;9.618;2023-09-08T08:57:00;5.80;;;4.87;;
15354;SDS011;7777;52.254;9.618;2023-09-08T08:59:27;7.77;;;5.33;;
15354;SDS011;7777;52.254;9.618;2023-09-08T09:01:54;9.47;;;5.77;;
15354;SDS011;7777;52.254;9.618;2023-09-08T09:04:20;6.13;;;4.97;;
15354;SDS011;7777;52.254;9.618;2023-09-08T09:06:46;12.27;;;5.90;;
15354;SDS011;7777;52.254;9.618;2023-09-08T09:09:12;8.43;;;5.67;;
15354;SDS011;7777;52.254;9.618;2023-09-08T09:11:40;15.47;;;5.37;;
15354;SDS011;7777;52.254;9.618;2023-09-08T09:14:05;9.23;;;5.57;;
15354;SDS011;7777;52.254;9.618;2023-09-08T09:16:37;6.40;;;5.03;;
15354;SDS011;7777;52.254;9.618;2023-09-08T09:19:09;7.60;;;5.10;;
15354;SDS011;7777;52.254;9.618;2023-09-08T09:21:50;10.00;;;5.40;;
15354;SDS011;7777;52.254;9.618;2023-09-08T09:24:40;9.80;;;5.50;;
15354;SDS011;7777;52.254;9.618;2023-09-08T09:27:09;7.27;;;5.03;;
15354;SDS011;7777;52.254;9.618;2023-09-08T09:29:49;8.80;;;4.73;;
15354;SDS011;7777;52.254;9.618;2023-09-08T09:32:16;10.53;;;5.60;;
15354;SDS011;7777;52.254;9.618;2023-09-08T09:34:49;8.17;;;5.03;;
15354;SDS011;7777;52.254;9.618;2023-09-08T09:37:21;7.40;;;4.60;;
15354;SDS011;7777;52.254;9.618;2023-09-08T09:39:49;6.27;;;4.73;;
15354;SDS011;7777;52.254;9.618;2023-09-08T09:42:16;6.47;;;4.93;;
15354;SDS011;7777;52.254;9.618;2023-09-08T09:44:43;10.77;;;4.80;;
15354;SDS011;7777;52.254;9.618;2023-09-08T09:47:09;6.43;;;4.67;;
15354;SDS011;7777;52.254;9.618;2023-09-08T09:49:44;8.63;;;4.97;;
15354;SDS011;7777;52.254;9.618;2023-09-08T09:52:14;7.00;;;4.80;;
15354;SDS011;7777;52.254;9.618;2023-09-08T09:54:51;7.30;;;4.40;;
15354;SDS011;7777;52.254;9.618;2023-09-08T09:57:20;12.13;;;4.87;;
15354;SDS011;7777;52.254;9.618;2023-09-08T09:59:47;7.97;;;4.63;;
15354;SDS011;7777;52.254;9.618;2023-09-08T10:02:15;9.43;;;4.83;;
15354;SDS011;7777;52.254;9.618;2023-09-08T10:04:47;7.63;;;5.13;;
15354;SDS011;7777;52.254;9.618;2023-09-08T10:07:15;7.47;;;5.07;;
15354;SDS011;7777;52.254;9.618;2023-09-08T10:09:41;10.27;;;5.50;;
15354;SDS011;7777;52.254;9.618;2023-09-08T10:12:08;11.83;;;4.90;;
15354;SDS011;7777;52.254;9.618;2023-09-08T10:14:40;10.73;;;5.50;;
15354;SDS011;7777;52.254;9.618;2023-09-08T10:17:08;7.30;;;4.77;;
15354;SDS011;7777;52.254;9.618;2023-09-08T10:19:42;10.87;;;4.80;;
15354;SDS011;7777;52.254;9.618;2023-09-08T10:22:14;8.40;;;5.03;;
15354;SDS011;7777;52.254;9.618;2023-09-08T10:24:51;9.10;;;4.93;;
15354;SDS011;7777;52.254;9.618;2023-09-08T10:27:19;7.53;;;4.83;;
15354;SDS011;7777;52.254;9.618;2023-09-08T10:29:48;7.10;;;4.57;;
15354;SDS011;7777;52.254;9.618;2023-09-08T10:32:15;4.67;;;3.77;;
15354;SDS011;7777;52.254;9.618;2023-09-08T10:34:43;5.30;;;3.90;;
15354;SDS011;7777;52.254;9.618;2023-09-08T10:37:22;9.60;;;4.57;;
15354;SDS011;7777;52.254;9.618;2023-09-08T10:39:50;12.60;;;4.50;;
15354;SDS011;7777;52.254;9.618;2023-09-08T10:47:18;4.73;;;3.97;;
15354;SDS011;7777;52.254;9.618;2023-09-08T10:49:47;5.90;;;3.87;;
15354;SDS011;7777;52.254;9.618;2023-09-08T10:52:15;6.53;;;3.90;;
15354;SDS011;7777;52.254;9.618;2023-09-08T10:54:47;8.20;;;3.73;;
15354;SDS011;7777;52.254;9.618;2023-09-08T10:57:15;8.13;;;4.33;;
15354;SDS011;7777;52.254;9.618;2023-09-08T11:00:00;5.70;;;4.40;;
15354;SDS011;7777;52.254;9.618;2023-09-08T11:03:10;4.53;;;3.40;;
15354;SDS011;7777;52.254;9.618;2023-09-08T11:05:29;7.90;;;4.27;;
15354;SDS011;7777;52.254;9.618;2023-09-08T11:07:57;8.57;;;4.30;;
15354;SDS011;7777;52.254;9.618;2023-09-08T11:10:24;7.13;;;3.37;;
15354;SDS011;7777;52.254;9.618;2023-09-08T11:12:50;6.83;;;3.80;;
15354;SDS011;7777;52.254;9.618;2023-09-08T11:15:17;4.43;;;3.10;;
15354;SDS011;7777;52.254;9.618;2023-09-08T11:17:44;6.07;;;3.57;;
15354;SDS011;7777;52.254;9.618;2023-09-08T11:20:15;10.97;;;3.70;;
15354;SDS011;7777;52.254;9.618;2023-09-08T11:22:42;6.18;;;4.07;;
15354;SDS011;7777;52.254;9.618;2023-09-08T11:25:09;4.82;;;3.55;;
15354;SDS011;7777;52.254;9.618;2023-09-08T11:27:36;4.37;;;3.10;;
15354;SDS011;7777;52.254;9.618;2023-09-08T11:30:05;7.43;;;3.60;;
15354;SDS011;7777;52.254;9.618;2023-09-08T11:32:33;4.85;;;3.55;;
15354;SDS011;7777;52.254;9.618;2023-09-08T11:35:04;5.50;;;3.40;;
15354;SDS011;7777;52.254;9.618;2023-09-08T11:37:35;4.22;;;3.45;;
15354;SDS011;7777;52.254;9.618;2023-09-08T11:40:03;4.72;;;3.65;;
15354;SDS011;7777;52.254;9.618;2023-09-08T11:42:34;5.18;;;3.55;;
15354;SDS011;7777;52.254;9.618;2023-09-08T11:45:00;4.28;;;3.30;;
15354;SDS011;7777;52.254;9.618;2023-09-08T11:47:28;4.68;;;3.17;;
15354;SDS011;7777;52.254;9.618;2023-09-08T11:49:55;6.30;;;3.20;;
15354;SDS011;7777;52.254;9.618;2023-09-08T11:52:25;4.25;;;3.05;;
15354;SDS011;7777;52.254;9.618;2023-09-08T11:54:52;6.35;;;3.20;;
15354;SDS011;7777;52.254;9.618;2023-09-08T11:57:18;6.13;;;3.13;;
15354;SDS011;7777;52.254;9.618;2023-09-08T11:59:44;2.92;;;2.50;;
15354;SDS011;7777;52.254;9.618;2023-09-08T12:02:13;3.88;;;3.30;;
15354;SDS011;7777;52.254;9.618;2023-09-08T12:04:39;3.58;;;2.85;;
15354;SDS011;7777;52.254;9.618;2023-09-08T12:07:07;5.22;;;2.90;;
15354;SDS011;7777;52.254;9.618;2023-09-08T12:09:41;5.55;;;3.03;;
15354;SDS011;7777;52.254;9.618;2023-09-08T12:12:13;4.15;;;2.65;;
15354;SDS011;7777;52.254;9.618;2023-09-08T12:14:42;4.55;;;3.20;;
15354;SDS011;7777;52.254;9.618;2023-09-08T12:17:08;5.53;;;3.00;;
15354;SDS011;7777;52.254;9.618;2023-09-08T12:19:34;5.68;;;3.25;;
15354;SDS011;7777;52.254;9.618;2023-09-08T12:22:04;4.63;;;2.58;;
15354;SDS011;7777;52.254;9.618;2023-09-08T12:27:21;3.53;;;2.78;;
15354;SDS011;7777;52.254;9.618;2023-09-08T12:30:06;9.50;;;3.35;;
15354;SDS011;7777;52.254;9.618;2023-09-08T12:32:33;7.43;;;2.70;;
15354;SDS011;7777;52.254;9.618;2023-09-08T12:35:01;4.93;;;2.75;;
15354;SDS011;7777;52.254;9.618;2023-09-08T12:37:29;6.22;;;3.03;;
15354;SDS011;7777;52.254;9.618;2023-09-08T12:39:58;3.45;;;2.92;;
15354;SDS011;7777;52.254;9.618;2023-09-08T12:42:25;6.20;;;3.10;;
15354;SDS011;7777;52.254;9.618;2023-09-08T12:44:54;4.90;;;2.72;;
15354;SDS011;7777;52.254;9.618;2023-09-08T12:47:20;3.55;;;2.05;;
15354;SDS011;7777;52.254;9.618;2023-09-08T12:49:46;4.70;;;2.60;;
15354;SDS011;7777;52.254;9.618;2023-09-08T12:52:12;3.33;;;2.28;;
15354;SDS011;7777;52.254;9.618;2023-09-08T12:54:38;4.88;;;2.33;;
15354;SDS011;7777;52.254;9.618;2023-09-08T12:57:04;4.43;;;2.35;;
15354;SDS011;7777;52.254;9.618;2023-09-08T12:59:30;2.75;;;2.15;;
15354;SDS011;7777;52.254;9.618;2023-09-08T13:01:56;3.58;;;2.58;;
15354;SDS011;7777;52.254;9.618;2023-09-08T13:04:22;3.30;;;2.40;;
15354;SDS011;7777;52.254;9.618;2023-09-08T13:06:48;6.28;;;2.70;;
15354;SDS011;7777;52.254;9.618;2023-09-08T13:09:15;4.03;;;2.53;;
15354;SDS011;7777;52.254;9.618;2023-09-08T13:11:41;7.03;;;2.60;;
15354;SDS011;7777;52.254;9.618;2023-09-08T13:14:08;2.97;;;2.42;;
15354;SDS011;7777;52.254;9.618;2023-09-08T13:16:34;3.47;;;2.22;;
15354;SDS011;7777;52.254;9.618;2023-09-08T13:18:59;3.05;;;2.00;;
15354;SDS011;7777;52.254;9.618;2023-09-08T13:21:25;3.38;;;2.13;;
15354;SDS011;7777;52.254;9.618;2023-09-08T13:23:51;3.40;;;2.38;;
15354;SDS011;7777;52.254;9.618;2023-09-08T13:26:17;2.58;;;1.88;;
15354;SDS011;7777;52.254;9.618;2023-09-08T13:28:42;2.85;;;1.88;;
15354;SDS011;7777;52.254;9.618;2023-09-08T13:31:08;4.13;;;2.33;;
15354;SDS011;7777;52.254;9.618;2023-09-08T13:33:34;5.10;;;1.98;;
15354;SDS011;7777;52.254;9.618;2023-09-08T13:36:00;7.50;;;2.22;;
15354;SDS011;7777;52.254;9.618;2023-09-08T13:38:26;3.83;;;2.53;;
15354;SDS011;7777;52.254;9.618;2023-09-08T13:40:51;3.45;;;2.63;;
15354;SDS011;7777;52.254;9.618;2023-09-08T13:43:18;4.03;;;2.70;;
15354;SDS011;7777;52.254;9.618;2023-09-08T13:45:44;3.28;;;2.42;;
15354;SDS011;7777;52.254;9.618;2023-09-08T13:48:09;5.40;;;2.20;;
15354;SDS011;7777;52.254;9.618;2023-09-08T13:50:37;3.08;;;2.45;;
15354;SDS011;7777;52.254;9.618;2023-09-08T13:53:04;3.17;;;2.33;;
15354;SDS011;7777;52.254;9.618;2023-09-08T13:55:30;4.90;;;2.10;;
15354;SDS011;7777;52.254;9.618;2023-09-08T13:57:56;2.80;;;1.98;;
15354;SDS011;7777;52.254;9.618;2023-09-08T14:00:22;2.88;;;2.00;;
15354;SDS011;7777;52.254;9.618;2023-09-08T14:02:47;4.30;;;2.40;;
15354;SDS011;7777;52.254;9.618;2023-09-08T14:05:15;3.92;;;2.63;;
15354;SDS011;7777;52.254;9.618;2023-09-08T14:07:40;4.10;;;2.35;;
15354;SDS011;7777;52.254;9.618;2023-09-08T14:10:06;3.30;;;2.10;;
15354;SDS011;7777;52.254;9.618;2023-09-08T14:12:33;4.80;;;2.47;;
15354;SDS011;7777;52.254;9.618;2023-09-08T14:14:59;1.98;;;1.60;;
15354;SDS011;7777;52.254;9.618;2023-09-08T14:17:25;2.88;;;2.00;;
15354;SDS011;7777;52.254;9.618;2023-09-08T14:19:51;5.28;;;2.20;;
15354;SDS011;7777;52.254;9.618;2023-09-08T14:22:17;3.53;;;2.10;;
15354;SDS011;7777;52.254;9.618;2023-09-08T14:24:42;3.03;;;2.17;;
15354;SDS011;7777;52.254;9.618;2023-09-08T14:27:08;4.57;;;2.13;;
15354;SDS011;7777;52.254;9.618;2023-09-08T14:29:35;4.35;;;2.45;;
15354;SDS011;7777;52.254;9.618;2023-09-08T14:32:01;3.13;;;2.53;;
15354;SDS011;7777;52.254;9.618;2023-09-08T14:34:27;4.70;;;2.17;;
15354;SDS011;7777;52.254;9.618;2023-09-08T14:36:53;3.10;;;2.38;;
15354;SDS011;7777;52.254;9.618;2023-09-08T14:39:19;6.63;;;2.17;;
15354;SDS011;7777;52.254;9.618;2023-09-08T14:41:45;4.93;;;2.28;;
15354;SDS011;7777;52.254;9.618;2023-09-08T14:44:11;4.90;;;2.38;;
15354;SDS011;7777;52.254;9.618;2023-09-08T14:46:37;5.10;;;2.30;;
15354;SDS011;7777;52.254;9.618;2023-09-08T14:49:03;5.90;;;2.38;;
15354;SDS011;7777;52.254;9.618;2023-09-08T14:51:29;3.40;;;2.05;;
15354;SDS011;7777;52.254;9.618;2023-09-08T14:53:54;2.97;;;2.15;;
15354;SDS011;7777;52.254;9.618;2023-09-08T14:56:20;4.03;;;2.42;;
15354;SDS011;7777;52.254;9.618;2023-09-08T14:58:46;4.32;;;2.30;;
15354;SDS011;7777;52.254;9.618;2023-09-08T15:01:11;3.83;;;1.88;;
15354;SDS011;7777;52.254;9.618;2023-09-08T15:03:39;3.75;;;2.20;;
15354;SDS011;7777;52.254;9.618;2023-09-08T15:06:06;3.05;;;2.05;;
15354;SDS011;7777;52.254;9.618;2023-09-08T15:08:33;4.75;;;2.38;;